Time;durP1;ratioP1;P1;durP2;ratioP2;P2;SDS_P1;SDS_P2;PMS_P1;PMS_P2;Temp;Humidity;BMP_temperature;BMP_pressure;BME280_temperature;BME280_humidity;BME280_pressure;Samples;Min_cycle;Max_cycle;Signal;HPM_P1;HPM_P2
2023/09/15 00:02:25;;;;;;;3.40;1.90;;;;;;;10.83;82.60;101122.83;107673;276;114169;-56
2023/09/15 00:05:08;;;;;;;4.90;2.20;;;;;;;10.77;82.81;101128.62;107698;276;94485;-56
2023/09/15 00:07:48;;;;;;;5.10;2.00;;;;;;;10.75;82.81;101132.55;107734;275;97786;-56
2023/09/15 00:10:23;;;;;;;5.40;2.00;;;;;;;10.72;82.89;101131.98;107727;276;120120;-56
2023/09/15 00:12:59;;;;;;;;;;;;;;;10.66;82.98;101136.70;107724;276;105839;-57
2023/09/15 00:15:40;;;;;;;5.10;2.30;;;;;;;10.59;83.18;101136.97;107725;276;114411;-56
2023/09/15 00:18:13;;;;;;;3.90;2.10;;;;;;;10.54;83.14;101139.85;107757;276;95396;-53
2023/09/15 00:20:48;;;;;;;3.10;2.00;;;;;;;10.48;83.15;101138.58;107742;276;97415;-53
2023/09/15 00:23:29;;;;;;;3.60;2.00;;;;;;;10.42;83.22;101143.41;107681;276;120854;-57
2023/09/15 00:26:07;;;;;;;4.70;2.10;;;;;;;10.37;83.29;101144.69;107645;276;106263;-57
2023/09/15 00:28:47;;;;;;;4.90;2.30;;;;;;;10.35;83.27;101142.77;107675;275;114063;-54
2023/09/15 00:31:27;;;;;;;4.00;2.30;;;;;;;10.32;83.41;101139.20;107654;276;96167;-53
2023/09/15 00:34:04;;;;;;;6.20;2.20;;;;;;;10.27;83.56;101143.71;107675;276;97774;-57
2023/09/15 00:36:45;;;;;;;3.20;2.00;;;;;;;10.24;83.58;101144.96;107692;276;119693;-57
2023/09/15 00:39:24;;;;;;;3.40;1.70;;;;;;;10.22;83.69;101150.95;107478;276;104594;-55
2023/09/15 00:41:58;;;;;;;3.10;2.20;;;;;;;10.17;83.75;101151.48;107650;275;114164;-55
2023/09/15 00:44:34;;;;;;;4.40;1.90;;;;;;;10.16;83.83;101145.69;107666;276;95721;-57
2023/09/15 00:47:08;;;;;;;4.10;1.90;;;;;;;10.11;83.81;101150.88;107679;276;96833;-57
2023/09/15 00:49:43;;;;;;;2.70;1.70;;;;;;;10.03;83.81;101153.67;107685;276;120495;-57
2023/09/15 00:52:23;;;;;;;3.30;1.90;;;;;;;9.98;84.03;101156.23;107656;276;104867;-56
2023/09/15 00:54:59;;;;;;;3.70;2.10;;;;;;;9.94;84.12;101162.20;107657;276;114341;-55
2023/09/15 00:57:33;;;;;;;3.20;2.00;;;;;;;9.89;84.03;101165.88;107696;276;95208;-55
2023/09/15 01:00:13;;;;;;;2.60;1.80;;;;;;;9.86;84.02;101168.28;107761;276;96642;-58
2023/09/15 01:02:46;;;;;;;3.50;2.20;;;;;;;9.82;84.21;101166.80;107793;276;121124;-55
2023/09/15 01:05:24;;;;;;;3.50;1.90;;;;;;;9.75;84.23;101167.90;107697;276;104695;-52
2023/09/15 01:07:59;;;;;;;5.10;2.00;;;;;;;9.73;84.40;101172.48;107648;276;113522;-54
2023/09/15 01:10:37;;;;;;;3.40;1.40;;;;;;;9.72;84.42;101171.70;107659;276;97062;-55
2023/09/15 01:13:13;;;;;;;4.30;2.10;;;;;;;9.71;84.43;101175.06;107720;276;98048;-56
2023/09/15 01:16:04;;;;;;;3.10;1.90;;;;;;;9.65;84.55;101175.52;107626;276;121155;-56
2023/09/15 01:18:50;;;;;;;3.70;1.90;;;;;;;9.57;84.55;101180.66;107636;276;105609;-55
2023/09/15 01:22:10;;;;;;;3.80;1.70;;;;;;;9.56;84.57;101184.27;107645;276;114934;-56
2023/09/15 01:25:40;;;;;;;3.70;2.20;;;;;;;9.51;84.65;101187.42;107526;272;97566;-58
2023/09/15 01:28:53;;;;;;;3.70;1.80;;;;;;;9.44;84.75;101187.83;107490;276;97302;-55
2023/09/15 01:31:36;;;;;;;2.90;1.70;;;;;;;9.44;84.74;101190.16;107701;275;121377;-55
2023/09/15 01:34:16;;;;;;;3.30;2.00;;;;;;;9.44;84.77;101189.73;107751;276;105748;-56
2023/09/15 01:36:53;;;;;;;4.90;1.90;;;;;;;9.43;85.01;101191.31;107489;276;117860;-56
2023/09/15 01:39:33;;;;;;;3.00;1.60;;;;;;;9.45;85.07;101190.09;107776;276;94545;-58
2023/09/15 01:42:08;;;;;;;3.70;2.20;;;;;;;9.40;84.88;101192.94;107801;275;97412;-57
2023/09/15 01:44:49;;;;;;;5.90;2.00;;;;;;;9.37;85.13;101196.70;107777;275;120555;-58
2023/09/15 01:47:26;;;;;;;3.20;1.60;;;;;;;9.30;85.20;101198.32;107806;275;105470;-58
2023/09/15 01:50:07;;;;;;;3.00;1.80;;;;;;;9.27;85.28;101198.48;107671;275;113289;-56
2023/09/15 01:52:42;;;;;;;5.70;1.70;;;;;;;9.18;85.15;101199.37;107689;276;96762;-55
2023/09/15 01:55:21;;;;;;;3.60;1.80;;;;;;;9.15;85.37;101199.73;107715;276;98247;-58
2023/09/15 01:58:05;;;;;;;4.30;2.00;;;;;;;9.16;85.31;101201.48;107712;276;120623;-57
2023/09/15 02:00:38;;;;;;;4.00;2.80;;;;;;;9.17;85.44;101202.27;107700;276;104612;-58
2023/09/15 02:03:15;;;;;;;4.20;1.80;;;;;;;9.17;85.34;101203.69;107533;276;116930;-52
2023/09/15 02:05:49;;;;;;;7.70;2.30;;;;;;;9.15;85.29;101202.11;107621;276;96090;-53
2023/09/15 02:08:20;;;;;;;5.20;2.30;;;;;;;9.11;85.31;101202.37;107667;276;97666;-53
2023/09/15 02:10:57;;;;;;;3.10;1.80;;;;;;;9.07;85.40;101198.30;107645;276;121372;-52
2023/09/15 02:13:35;;;;;;;3.60;1.80;;;;;;;9.05;85.32;101199.40;107692;275;103931;-55
2023/09/15 02:16:15;;;;;;;3.70;1.90;;;;;;;9.03;85.38;101199.54;107626;275;115486;-55
2023/09/15 02:18:54;;;;;;;3.80;1.80;;;;;;;9.06;85.43;101200.58;107717;276;96668;-57
2023/09/15 02:21:32;;;;;;;4.50;1.80;;;;;;;9.08;85.54;101205.48;107734;275;98032;-57
2023/09/15 02:24:08;;;;;;;4.40;2.20;;;;;;;9.07;85.80;101205.24;107723;276;120960;-57
2023/09/15 02:26:45;;;;;;;4.80;1.90;;;;;;;9.02;85.77;101204.55;107728;276;104161;-58
2023/09/15 02:29:26;;;;;;;3.70;2.20;;;;;;;8.94;85.73;101205.94;107570;276;113689;-56
2023/09/15 02:32:00;;;;;;;3.70;1.70;;;;;;;8.91;85.75;101205.67;107535;276;96411;-56
2023/09/15 02:34:36;;;;;;;3.10;1.80;;;;;;;8.89;85.77;101205.14;107701;275;96808;-58
2023/09/15 02:37:18;;;;;;;3.30;1.60;;;;;;;8.89;85.74;101206.44;107716;276;120448;-57
2023/09/15 02:39:59;;;;;;;4.10;1.90;;;;;;;8.81;85.65;101210.64;107675;276;104930;-57
2023/09/15 02:42:36;;;;;;;4.40;2.50;;;;;;;8.76;85.80;101214.80;107497;275;114604;-57
2023/09/15 02:45:10;;;;;;;4.90;2.00;;;;;;;8.66;85.79;101214.17;107656;276;94881;-52
2023/09/15 02:47:42;;;;;;;5.20;2.20;;;;;;;8.65;85.77;101224.73;107689;276;98284;-56
2023/09/15 02:50:19;;;;;;;4.30;1.70;;;;;;;8.66;85.81;101226.09;107631;276;119108;-54
2023/09/15 02:52:54;;;;;;;4.70;2.00;;;;;;;8.65;85.90;101228.13;107629;275;105296;-58
2023/09/15 02:55:29;;;;;;;3.40;2.00;;;;;;;8.64;85.78;101228.63;107713;276;114443;-58
2023/09/15 02:58:05;;;;;;;3.40;1.70;;;;;;;8.64;85.85;101229.44;107716;276;96802;-57
2023/09/15 03:00:48;;;;;;;4.70;1.90;;;;;;;8.60;85.98;101228.31;107807;275;97207;-58
2023/09/15 03:03:32;;;;;;;4.70;2.00;;;;;;;8.53;86.27;101231.39;107793;276;120095;-58
2023/09/15 03:06:10;;;;;;;3.90;1.70;;;;;;;8.50;86.21;101233.30;107727;275;105176;-58
2023/09/15 03:08:50;;;;;;;3.10;2.00;;;;;;;8.47;86.17;101235.90;107800;268;114658;-57
2023/09/15 03:11:30;;;;;;;5.90;2.10;;;;;;;8.44;86.15;101238.40;107765;276;95299;-58
2023/09/15 03:14:04;;;;;;;4.60;2.10;;;;;;;8.42;86.33;101238.30;107721;276;97221;-56
2023/09/15 03:16:42;;;;;;;2.50;1.80;;;;;;;8.40;86.32;101242.21;107691;276;120658;-56
2023/09/15 03:19:22;;;;;;;4.10;2.20;;;;;;;8.35;86.30;101242.38;107671;275;104014;-54
2023/09/15 03:22:05;;;;;;;3.80;2.20;;;;;;;8.28;86.34;101238.97;107626;276;113462;-55
2023/09/15 03:24:47;;;;;;;3.00;1.60;;;;;;;8.24;86.22;101238.76;107527;276;95927;-53
2023/09/15 03:27:25;;;;;;;2.70;1.70;;;;;;;8.20;86.41;101246.48;107643;276;97341;-53
2023/09/15 03:30:07;;;;;;;4.10;2.00;;;;;;;8.20;86.37;101252.77;107674;276;120750;-58
2023/09/15 03:32:40;;;;;;;2.50;1.70;;;;;;;8.20;86.51;101254.96;107695;276;104251;-60
2023/09/15 03:35:19;;;;;;;4.50;2.20;;;;;;;8.20;86.51;101254.42;107658;275;112272;-54
2023/09/15 03:37:57;;;;;;;3.80;2.00;;;;;;;8.18;86.63;101257.09;107687;276;95101;-55
2023/09/15 03:40:32;;;;;;;3.00;1.80;;;;;;;8.15;86.69;101262.88;107664;275;101016;-54
2023/09/15 03:43:11;;;;;;;3.00;1.90;;;;;;;8.11;86.63;101262.88;107711;275;118919;-57
2023/09/15 03:45:50;;;;;;;2.50;1.80;;;;;;;8.10;86.66;101262.63;107575;276;105596;-57
2023/09/15 03:48:26;;;;;;;6.50;1.90;;;;;;;8.06;86.61;101260.50;107672;276;114210;-58
2023/09/15 03:50:59;;;;;;;3.10;1.70;;;;;;;8.02;86.70;101264.69;107751;275;95594;-59
2023/09/15 03:53:35;;;;;;;3.20;1.90;;;;;;;7.98;86.69;101268.18;107695;276;98150;-56
2023/09/15 03:56:07;;;;;;;3.20;1.80;;;;;;;7.98;86.74;101270.15;107176;276;653018;-56
2023/09/15 03:58:49;;;;;;;4.30;2.10;;;;;;;7.97;86.71;101273.41;107554;276;103863;-57
2023/09/15 04:01:28;;;;;;;3.50;2.00;;;;;;;7.99;86.83;101279.36;107653;275;114630;-56
2023/09/15 04:04:11;;;;;;;4.20;2.00;;;;;;;8.00;86.91;101279.23;107632;275;96230;-54
2023/09/15 04:06:45;;;;;;;5.10;1.80;;;;;;;7.94;86.93;101277.72;107622;276;97046;-53
2023/09/15 04:09:20;;;;;;;4.80;2.10;;;;;;;7.87;87.00;101276.77;107684;275;121675;-59
2023/09/15 04:11:54;;;;;;;2.70;1.90;;;;;;;7.88;87.02;101281.30;107515;276;104568;-59
2023/09/15 04:14:28;;;;;;;4.40;2.00;;;;;;;7.88;86.93;101283.50;107537;276;112965;-58
2023/09/15 04:17:07;;;;;;;4.90;1.90;;;;;;;7.88;86.89;101284.27;107663;276;97642;-59
2023/09/15 04:19:47;;;;;;;4.70;2.00;;;;;;;7.86;86.83;101282.60;107646;276;96883;-54
2023/09/15 04:22:32;;;;;;;4.70;2.00;;;;;;;7.84;86.94;101286.83;107663;276;121135;-54
2023/09/15 04:25:11;;;;;;;4.50;2.00;;;;;;;7.84;87.04;101289.10;107703;276;105364;-52
2023/09/15 04:27:47;;;;;;;5.30;2.00;;;;;;;7.85;87.14;101288.85;107700;275;113305;-57
2023/09/15 04:30:22;;;;;;;6.60;2.20;;;;;;;7.87;87.14;101290.19;107759;276;97099;-58
2023/09/15 04:32:56;;;;;;;3.90;1.70;;;;;;;7.91;87.06;101294.16;107747;276;97078;-55
2023/09/15 04:35:31;;;;;;;3.80;2.30;;;;;;;7.91;87.16;101293.39;107758;276;120735;-55
2023/09/15 04:38:07;;;;;;;3.20;1.90;;;;;;;7.93;87.26;101297.52;107766;276;106007;-59
2023/09/15 04:40:47;;;;;;;3.50;2.10;;;;;;;7.94;87.26;101297.03;107739;276;113964;-58
2023/09/15 04:43:25;;;;;;;4.80;2.20;;;;;;;8.00;87.48;101301.50;107734;276;96020;-56
2023/09/15 04:46:01;;;;;;;3.70;2.20;;;;;;;8.03;87.43;101299.77;107672;276;96219;-58
2023/09/15 04:48:37;;;;;;;3.60;1.80;;;;;;;8.09;87.50;101302.71;107661;276;120137;-57
2023/09/15 04:51:12;;;;;;;4.50;1.80;;;;;;;8.16;87.64;101297.34;107671;276;105116;-58
2023/09/15 04:53:46;;;;;;;3.60;2.20;;;;;;;8.21;87.69;101300.98;107649;276;115201;-54
2023/09/15 04:56:26;;;;;;;3.10;1.90;;;;;;;8.30;87.72;101303.90;107654;276;96666;-53
2023/09/15 04:59:15;;;;;;;4.00;2.20;;;;;;;8.44;87.80;101306.61;107616;276;96239;-54
2023/09/15 05:01:52;;;;;;;3.50;2.00;;;;;;;8.54;87.81;101308.83;107672;276;120851;-53
2023/09/15 05:04:27;;;;;;;3.50;2.00;;;;;;;8.63;87.80;101308.64;107638;276;105218;-54
2023/09/15 05:07:03;;;;;;;4.50;2.80;;;;;;;8.72;87.87;101313.20;107653;276;114828;-54
2023/09/15 05:09:39;;;;;;;4.90;2.30;;;;;;;8.91;88.10;101317.61;107655;276;95879;-54
2023/09/15 05:12:16;;;;;;;4.30;2.50;;;;;;;9.12;88.26;101323.73;107639;276;97758;-55
2023/09/15 05:14:53;;;;;;;4.80;2.50;;;;;;;9.39;88.68;101317.14;107642;276;119877;-56
2023/09/15 05:17:30;;;;;;;5.30;3.30;;;;;;;10.00;88.57;101321.19;107661;276;105686;-59
2023/09/15 05:20:13;;;;;;;5.20;3.30;;;;;;;10.91;87.81;101321.09;107680;275;112718;-54
2023/09/15 05:22:49;;;;;;;4.00;2.30;;;;;;;11.43;87.21;101320.66;107539;276;97231;-54
2023/09/15 05:25:26;;;;;;;5.40;2.30;;;;;;;11.38;86.85;101324.61;107724;276;97352;-54
2023/09/15 05:28:02;;;;;;;5.10;2.30;;;;;;;11.29;86.97;101330.98;107701;276;120151;-58
2023/09/15 05:30:50;;;;;;;7.70;2.60;;;;;;;11.21;86.86;101335.78;107488;276;106157;-54
2023/09/15 05:33:22;;;;;;;7.80;2.30;;;;;;;11.14;86.94;101336.96;107662;276;113138;-53
2023/09/15 05:35:56;;;;;;;8.40;3.00;;;;;;;11.06;86.91;101343.95;107620;275;95815;-53
2023/09/15 05:38:33;;;;;;;6.30;2.30;;;;;;;11.03;86.87;101346.77;107524;276;96637;-56
2023/09/15 05:41:11;;;;;;;5.60;2.60;;;;;;;11.07;86.92;101350.66;107671;276;118534;-57
2023/09/15 05:43:46;;;;;;;4.80;2.60;;;;;;;11.12;86.90;101344.74;107689;276;105755;-56
2023/09/15 05:46:20;;;;;;;4.60;2.10;;;;;;;11.20;86.84;101343.83;107623;276;113721;-57
2023/09/15 05:49:01;;;;;;;4.10;2.10;;;;;;;11.92;87.30;101342.70;107626;276;96095;-58
2023/09/15 05:51:37;;;;;;;3.30;2.30;;;;;;;14.41;87.20;101340.09;107704;276;98602;-59
2023/09/15 05:54:16;;;;;;;7.00;3.00;;;;;;;16.95;85.25;101338.64;107722;275;121467;-59
2023/09/15 05:56:51;;;;;;;5.20;2.60;;;;;;;18.97;82.73;101334.12;107657;275;105743;-56
2023/09/15 05:59:25;;;;;;;11.80;2.90;;;;;;;20.31;79.95;101334.51;107636;276;114468;-59
2023/09/15 06:02:01;;;;;;;8.60;2.50;;;;;;;21.09;77.09;101332.94;107700;275;92992;-60
2023/09/15 06:04:55;;;;;;;13.10;3.50;;;;;;;21.01;73.89;101333.75;107727;275;98718;-57
2023/09/15 06:07:32;;;;;;;16.10;2.70;;;;;;;21.37;71.25;101334.38;107486;276;122904;-55
2023/09/15 06:10:08;;;;;;;15.20;3.10;;;;;;;21.07;69.22;101335.27;107664;275;105806;-54
2023/09/15 06:12:50;;;;;;;11.10;3.30;;;;;;;19.54;68.99;101341.77;107703;276;112964;-57
2023/09/15 06:15:28;;;;;;;12.80;2.60;;;;;;;18.48;69.88;101349.88;107490;276;93815;-56
2023/09/15 06:18:04;;;;;;;8.40;2.70;;;;;;;17.64;69.82;101344.94;107646;276;98345;-54
2023/09/15 06:20:44;;;;;;;13.30;2.60;;;;;;;16.91;70.23;101351.92;107728;276;120347;-55
2023/09/15 06:23:22;;;;;;;6.10;3.80;;;;;;;16.30;71.00;101352.72;107673;275;105315;-55
2023/09/15 06:26:00;;;;;;;;;;;;;;;15.88;71.39;101347.55;107645;276;114818;-55
2023/09/15 06:28:41;;;;;;;8.30;2.30;;;;;;;15.55;71.80;101349.64;107658;276;94373;-54
2023/09/15 06:31:19;;;;;;;11.30;3.20;;;;;;;15.45;72.06;101352.23;107663;276;96708;-56
2023/09/15 06:34:01;;;;;;;11.10;2.70;;;;;;;15.29;72.40;101355.32;107624;275;120822;-56
2023/09/15 06:36:39;;;;;;;11.40;2.90;;;;;;;15.27;72.80;101356.09;107610;275;105613;-56
2023/09/15 06:39:23;;;;;;;11.10;2.80;;;;;;;15.25;72.96;101360.48;107695;276;114070;-57
2023/09/15 06:42:02;;;;;;;8.30;2.80;;;;;;;15.26;73.22;101359.02;107663;276;94341;-57
2023/09/15 06:44:42;;;;;;;13.20;3.00;;;;;;;15.20;73.20;101358.89;107668;275;98129;-58
2023/09/15 06:47:16;;;;;;;12.80;2.40;;;;;;;15.20;73.27;101360.23;107682;276;120144;-58
2023/09/15 06:49:52;;;;;;;8.50;2.90;;;;;;;15.20;73.16;101363.57;107741;276;104451;-54
2023/09/15 06:52:30;;;;;;;12.70;3.30;;;;;;;15.24;73.19;101364.36;107684;275;115364;-55
2023/09/15 06:55:09;;;;;;;14.20;3.60;;;;;;;15.35;73.32;101365.13;107653;276;93417;-57
2023/09/15 06:57:50;;;;;;;9.90;3.70;;;;;;;15.64;73.61;101363.46;107722;276;97843;-56
2023/09/15 07:00:24;;;;;;;12.60;3.40;;;;;;;15.93;72.89;101359.75;107657;275;121349;-55
2023/09/15 07:03:04;;;;;;;10.50;2.50;;;;;;;15.99;72.49;101361.42;107721;275;104663;-56
2023/09/15 07:05:40;;;;;;;9.20;2.50;;;;;;;15.93;72.34;101369.73;107677;275;113128;-57
2023/09/15 07:08:18;;;;;;;6.40;2.40;;;;;;;15.96;72.68;101369.13;107719;276;94686;-57
2023/09/15 07:11:08;;;;;;;8.00;2.90;;;;;;;15.86;72.46;101370.58;107658;276;97500;-56
2023/09/15 07:13:46;;;;;;;7.20;2.90;;;;;;;16.05;72.69;101370.27;107676;275;120887;-55
2023/09/15 07:16:17;;;;;;;9.00;3.10;;;;;;;16.13;72.40;101367.70;107682;275;103753;-56
2023/09/15 07:18:59;;;;;;;4.50;1.90;;;;;;;16.14;72.41;101373.16;107677;275;114363;-56
2023/09/15 07:21:43;;;;;;;8.40;2.10;;;;;;;16.07;72.16;101370.23;107601;276;94332;-55
2023/09/15 07:24:17;;;;;;;12.10;2.90;;;;;;;16.06;72.10;101366.48;107645;275;97854;-55
2023/09/15 07:26:52;;;;;;;5.70;2.20;;;;;;;16.15;72.10;101368.22;107650;276;119556;-56
2023/09/15 07:29:33;;;;;;;8.70;2.60;;;;;;;16.06;71.82;101366.95;107666;276;105137;-56
2023/09/15 07:32:08;;;;;;;16.10;2.40;;;;;;;16.03;71.73;101362.66;107484;276;113343;-57
2023/09/15 07:34:45;;;;;;;8.10;2.20;;;;;;;15.92;71.72;101362.44;107675;276;95489;-53
2023/09/15 07:37:22;;;;;;;9.80;2.10;;;;;;;16.01;71.79;101364.08;107549;276;96635;-53
2023/09/15 07:39:56;;;;;;;8.90;2.60;;;;;;;16.01;71.44;101363.83;107709;276;119000;-53
2023/09/15 07:42:46;;;;;;;5.30;1.60;;;;;;;16.00;71.29;101366.13;107672;275;105777;-53
2023/09/15 07:45:26;;;;;;;6.90;2.00;;;;;;;16.03;71.44;101367.85;107671;276;114062;-59
2023/09/15 07:48:05;;;;;;;4.50;1.60;;;;;;;16.30;71.25;101365.98;107693;276;94970;-54
2023/09/15 07:50:37;;;;;;;4.70;1.80;;;;;;;16.59;70.99;101365.52;107712;275;98047;-54
2023/09/15 07:53:13;;;;;;;6.70;2.00;;;;;;;17.32;70.56;101367.09;107707;276;120469;-58
2023/09/15 07:55:50;;;;;;;15.20;2.70;;;;;;;17.85;69.81;101363.38;107615;276;105573;-60
2023/09/15 07:58:25;;;;;;;9.80;2.10;;;;;;;18.31;69.22;101362.83;107737;276;114650;-57
2023/09/15 08:01:07;;;;;;;6.60;1.60;;;;;;;18.86;68.88;101363.80;107679;276;94313;-55
2023/09/15 08:03:41;;;;;;;4.20;1.60;;;;;;;19.69;68.73;101357.17;107492;276;99845;-58
2023/09/15 08:06:23;;;;;;;5.60;1.70;;;;;;;21.46;67.47;101352.88;107622;276;120154;-57
2023/09/15 08:09:02;;;;;;;8.20;1.70;;;;;;;22.97;65.62;101353.19;107625;276;105522;-57
2023/09/15 08:11:44;;;;;;;7.60;1.90;;;;;;;23.54;63.26;101355.36;107599;275;114459;-58
2023/09/15 08:14:24;;;;;;;3.60;1.80;;;;;;;24.79;61.55;101345.32;107615;276;93916;-58
2023/09/15 08:17:06;;;;;;;4.50;1.80;;;;;;;26.04;59.78;101346.34;107649;276;98608;-56
2023/09/15 08:19:42;;;;;;;4.80;2.10;;;;;;;27.12;57.63;101353.70;107514;276;122203;-56
2023/09/15 08:22:25;;;;;;;7.10;1.60;;;;;;;27.58;54.92;101354.86;107640;276;106108;-56
2023/09/15 08:25:01;;;;;;;4.10;1.80;;;;;;;27.60;53.03;101357.35;107678;276;115589;-55
2023/09/15 08:27:39;;;;;;;6.10;1.80;;;;;;;27.89;51.83;101353.81;107726;276;94102;-54
2023/09/15 08:30:13;;;;;;;5.30;1.80;;;;;;;27.71;50.76;101353.34;107660;276;98578;-56
2023/09/15 08:32:53;;;;;;;7.20;2.10;;;;;;;27.37;49.57;101359.45;107708;276;119703;-58
2023/09/15 08:35:33;;;;;;;4.70;1.70;;;;;;;26.95;48.71;101352.52;107759;276;105186;-59
2023/09/15 08:38:08;;;;;;;6.90;1.80;;;;;;;26.83;48.52;101354.91;107723;276;115272;-58
2023/09/15 08:40:50;;;;;;;4.40;1.80;;;;;;;26.79;48.04;101354.90;107666;276;93988;-59
2023/09/15 08:43:23;;;;;;;5.70;1.50;;;;;;;27.46;47.36;101353.30;107686;276;96810;-55
2023/09/15 08:46:03;;;;;;;4.00;1.70;;;;;;;27.76;45.72;101343.22;107633;276;119868;-55
2023/09/15 08:48:49;;;;;;;8.10;2.00;;;;;;;28.22;45.30;101343.08;107718;276;105272;-60
2023/09/15 08:51:28;;;;;;;8.90;2.10;;;;;;;28.45;44.46;101333.58;107652;276;114448;-60
2023/09/15 08:54:01;;;;;;;3.20;1.60;;;;;;;28.58;44.18;101334.98;107648;276;94165;-55
2023/09/15 08:56:35;;;;;;;5.90;1.90;;;;;;;28.75;43.04;101331.29;107702;275;96591;-55
2023/09/15 08:59:14;;;;;;;4.40;1.70;;;;;;;28.52;42.71;101333.34;107644;276;121077;-57
2023/09/15 09:01:49;;;;;;;4.10;1.60;;;;;;;28.14;42.49;101337.65;107694;276;106155;-56
2023/09/15 09:04:22;;;;;;;4.10;1.40;;;;;;;27.69;42.75;101340.13;107699;277;113462;-57
2023/09/15 09:07:02;;;;;;;4.00;1.20;;;;;;;27.01;41.03;101335.94;107645;276;93376;-56
2023/09/15 09:09:43;;;;;;;3.60;2.70;;;;;;;26.60;41.00;101334.15;107717;276;96274;-59
2023/09/15 09:12:23;;;;;;;2.20;1.40;;;;;;;26.32;41.84;101329.90;107695;275;119908;-60
2023/09/15 09:15:01;;;;;;;2.70;1.60;;;;;;;26.32;42.47;101331.83;107694;275;106345;-58
2023/09/15 09:17:39;;;;;;;3.10;1.30;;;;;;;26.31;42.34;101332.23;107698;276;113898;-58
2023/09/15 09:20:27;;;;;;;3.80;1.70;;;;;;;26.33;41.93;101329.95;107697;275;93366;-54
2023/09/15 09:23:03;;;;;;;3.20;1.40;;;;;;;26.14;42.55;101335.13;107729;276;96222;-57
2023/09/15 09:25:39;;;;;;;4.20;1.40;;;;;;;26.22;42.34;101331.34;107637;276;121410;-56
2023/09/15 09:28:14;;;;;;;3.10;1.60;;;;;;;26.47;42.39;101332.23;107674;276;104184;-56
2023/09/15 09:30:53;;;;;;;4.30;2.00;;;;;;;26.69;42.08;101336.56;107657;276;114259;-57
2023/09/15 09:33:39;;;;;;;2.50;1.50;;;;;;;26.59;41.46;101340.46;107661;275;94056;-58
2023/09/15 09:36:21;;;;;;;5.00;1.70;;;;;;;25.62;40.71;101341.73;107673;276;96620;-58
2023/09/15 09:39:02;;;;;;;3.70;1.50;;;;;;;25.01;42.20;101340.16;107724;275;121414;-59
2023/09/15 09:41:40;;;;;;;4.20;1.60;;;;;;;24.79;42.51;101338.37;107727;276;105298;-60
2023/09/15 09:44:14;;;;;;;3.30;1.70;;;;;;;24.23;42.27;101335.46;107754;276;115225;-59
2023/09/15 09:46:56;;;;;;;4.10;1.50;;;;;;;23.53;42.97;101338.90;107681;276;94601;-59
2023/09/15 09:49:41;;;;;;;5.20;1.90;;;;;;;23.20;43.20;101341.25;107478;276;97059;-55
2023/09/15 09:52:17;;;;;;;2.40;1.50;;;;;;;23.08;43.40;101346.29;107687;275;120548;-55
2023/09/15 09:54:56;;;;;;;2.50;1.60;;;;;;;22.95;43.70;101340.91;107681;275;105930;-59
2023/09/15 09:57:32;;;;;;;2.70;1.50;;;;;;;22.90;44.16;101342.36;107675;276;114095;-59
2023/09/15 10:00:17;;;;;;;2.40;1.60;;;;;;;22.62;44.13;101342.70;107656;275;95284;-57
2023/09/15 10:02:59;;;;;;;5.30;1.60;;;;;;;22.53;44.71;101341.02;107715;276;97362;-56
2023/09/15 10:05:37;;;;;;;7.50;1.60;;;;;;;22.38;45.21;101345.45;107740;275;118312;-55
2023/09/15 10:08:11;;;;;;;2.40;1.40;;;;;;;22.26;45.55;101348.89;107753;276;104616;-54
2023/09/15 10:10:49;;;;;;;2.80;1.50;;;;;;;21.98;45.31;101347.34;107660;276;113523;-54
2023/09/15 10:13:32;;;;;;;2.60;1.20;;;;;;;21.79;45.27;101347.33;107694;275;94008;-54
2023/09/15 10:16:14;;;;;;;3.70;1.60;;;;;;;21.81;45.45;101341.24;107677;276;96080;-56
2023/09/15 10:18:47;;;;;;;6.50;1.70;;;;;;;21.65;45.43;101341.99;107480;276;121312;-55
2023/09/15 10:21:21;;;;;;;6.00;1.70;;;;;;;21.51;45.58;101346.69;107600;276;105304;-55
2023/09/15 10:24:00;;;;;;;;;;;;;;;21.37;45.85;101346.14;107668;276;114559;-58
2023/09/15 10:26:39;;;;;;;3.50;1.40;;;;;;;21.35;45.91;101343.88;107633;276;94556;-59
2023/09/15 10:29:29;;;;;;;3.20;1.80;;;;;;;21.28;46.05;101338.47;107669;276;98470;-54
2023/09/15 10:32:06;;;;;;;3.30;1.40;;;;;;;21.24;45.93;101338.20;107650;276;120872;-54
2023/09/15 10:34:43;;;;;;;3.70;1.40;;;;;;;21.31;45.65;101335.80;107667;276;105772;-54
2023/09/15 10:37:22;;;;;;;4.90;1.40;;;;;;;21.41;46.16;101332.92;107617;275;113874;-54
2023/09/15 10:40:04;;;;;;;4.80;1.40;;;;;;;21.41;45.94;101335.74;107662;275;94557;-55
2023/09/15 10:42:55;;;;;;;3.30;1.40;;;;;;;21.36;46.20;101337.53;107710;276;96305;-55
2023/09/15 10:45:38;;;;;;;3.30;1.50;;;;;;;21.31;46.20;101329.70;107738;276;119243;-59
2023/09/15 10:48:10;;;;;;;3.40;1.90;;;;;;;21.32;46.35;101332.10;107768;275;104392;-53
2023/09/15 10:50:48;;;;;;;3.20;1.50;;;;;;;21.15;46.00;101339.02;107778;275;114970;-55
2023/09/15 10:53:23;;;;;;;3.40;1.40;;;;;;;21.14;46.04;101331.81;107683;276;93802;-55
2023/09/15 10:56:07;;;;;;;4.10;1.50;;;;;;;21.10;46.49;101336.31;107641;275;97675;-56
2023/09/15 10:58:49;;;;;;;5.10;1.70;;;;;;;21.15;46.73;101331.16;107603;275;120824;-57
2023/09/15 11:01:28;;;;;;;4.10;2.00;;;;;;;21.13;46.89;101329.20;107666;276;104701;-59
2023/09/15 11:04:06;;;;;;;5.70;1.90;;;;;;;21.28;47.15;101328.36;107733;276;113831;-59
2023/09/15 11:06:42;;;;;;;3.90;1.70;;;;;;;21.35;46.66;101327.72;107683;275;92369;-59
2023/09/15 11:09:22;;;;;;;2.40;1.50;;;;;;;21.33;46.34;101325.14;107757;276;97162;-58
2023/09/15 11:12:02;;;;;;;2.60;1.50;;;;;;;21.35;46.56;101325.02;107717;276;120683;-58
2023/09/15 11:14:38;;;;;;;2.60;1.60;;;;;;;21.26;46.19;101328.81;107627;275;105317;-56
2023/09/15 11:17:23;;;;;;;4.30;1.70;;;;;;;21.10;45.74;101331.10;107658;276;114380;-56
2023/09/15 11:20:06;;;;;;;3.90;1.70;;;;;;;21.01;45.85;101335.70;107651;276;94406;-57
2023/09/15 11:22:46;;;;;;;4.20;1.80;;;;;;;20.95;45.94;101332.52;107625;276;97161;-56
2023/09/15 11:25:25;;;;;;;4.90;1.60;;;;;;;21.00;46.26;101325.98;107580;276;120269;-59
2023/09/15 11:28:10;;;;;;;3.20;1.40;;;;;;;21.07;46.45;101321.93;107696;276;104317;-55
2023/09/15 11:30:44;;;;;;;2.70;1.50;;;;;;;21.03;46.49;101325.34;107686;276;113372;-53
2023/09/15 11:33:19;;;;;;;3.00;1.70;;;;;;;20.95;46.43;101321.70;107706;276;93617;-56
2023/09/15 11:35:57;;;;;;;4.00;1.60;;;;;;;20.89;46.36;101318.89;107675;276;97200;-54
2023/09/15 11:38:39;;;;;;;4.00;1.50;;;;;;;20.84;46.49;101313.95;107709;276;120282;-58
2023/09/15 11:41:19;;;;;;;5.40;1.80;;;;;;;20.88;46.53;101313.96;107774;275;104110;-58
2023/09/15 11:43:57;;;;;;;1.80;1.30;;;;;;;20.86;46.03;101313.41;107709;275;114872;-57
2023/09/15 11:46:33;;;;;;;2.90;1.90;;;;;;;20.93;46.10;101310.84;107661;276;93678;-57
2023/09/15 11:49:12;;;;;;;4.70;1.70;;;;;;;20.97;46.09;101306.21;107767;276;98406;-53
2023/09/15 11:51:56;;;;;;;4.30;2.50;;;;;;;20.99;46.18;101309.64;107614;275;120288;-54
2023/09/15 11:54:36;;;;;;;4.60;1.90;;;;;;;20.96;46.04;101309.23;107730;275;105518;-60
2023/09/15 11:57:13;;;;;;;2.70;2.00;;;;;;;20.83;46.01;101307.11;107051;277;555973;-58
2023/09/15 11:59:50;;;;;;;4.60;1.90;;;;;;;20.84;46.25;101303.41;107601;276;93074;-58
2023/09/15 12:02:26;;;;;;;5.20;1.60;;;;;;;20.85;46.23;101303.75;107498;276;98110;-57
2023/09/15 12:05:01;;;;;;;2.30;1.40;;;;;;;20.85;46.09;101304.85;107648;275;120182;-58
2023/09/15 12:07:33;;;;;;;5.10;1.50;;;;;;;20.81;45.91;101300.52;107687;275;105409;-58
2023/09/15 12:10:09;;;;;;;3.20;1.50;;;;;;;20.78;46.01;101299.08;107520;276;115857;-56
2023/09/15 12:13:00;;;;;;;2.00;1.40;;;;;;;20.81;46.06;101299.46;107636;276;94095;-56
2023/09/15 12:15:47;;;;;;;3.00;1.60;;;;;;;20.78;45.88;101297.47;107739;276;97324;-59
2023/09/15 12:18:27;;;;;;;4.10;1.80;;;;;;;20.70;46.10;101294.55;107765;276;120884;-58